Time;durP1;ratioP1;P1;durP2;ratioP2;P2;SDS_P1;SDS_P2;PMS_P1;PMS_P2;Temp;Humidity;BMP_temperature;BMP_pressure;BME280_temperature;BME280_humidity;BME280_pressure;Samples;Min_cycle;Max_cycle;Signal;HPM_P1;HPM_P2
2022/06/28 00:00:22;;;;;;;1.33;0.90;;;;;;;21.01;88.80;101192.50;5056667;28;20112;-60
2022/06/28 00:02:47;;;;;;;1.65;1.08;;;;;;;21.01;89.29;101195.25;5068607;28;20028;-62
2022/06/28 00:05:13;;;;;;;1.20;0.90;;;;;;;21.07;88.91;101201.81;5056580;28;20352;-61
2022/06/28 00:07:39;;;;;;;1.98;1.30;;;;;;;21.10;88.53;101194.75;5051866;28;20033;-59
2022/06/28 00:10:05;;;;;;;1.40;1.00;;;;;;;20.95;89.50;101188.63;5060849;28;20037;-61
2022/06/28 00:12:32;;;;;;;2.00;1.35;;;;;;;20.99;88.82;101189.38;5061549;28;20036;-61
2022/06/28 00:17:42;;;;;;;1.30;1.15;;;;;;;21.04;88.71;101216.31;5058479;28;20024;-61
2022/06/28 00:20:09;;;;;;;2.85;1.50;;;;;;;21.01;88.17;101224.59;5053359;28;20040;-61
2022/06/28 00:22:35;;;;;;;1.92;1.13;;;;;;;20.98;87.90;101212.44;5052755;28;20053;-60
2022/06/28 00:25:00;;;;;;;1.70;0.93;;;;;;;21.03;87.60;101208.53;5063832;28;20052;-62
2022/06/28 00:27:26;;;;;;;1.75;1.25;;;;;;;20.95;88.40;101202.34;5057577;28;20028;-60
2022/06/28 00:29:51;;;;;;;2.33;1.20;;;;;;;20.94;88.24;101210.97;5055692;28;20362;-61
2022/06/28 00:32:17;;;;;;;1.77;0.93;;;;;;;20.93;88.26;101214.88;5064313;28;20028;-59
2022/06/28 00:34:42;;;;;;;2.15;1.13;;;;;;;20.78;88.64;101206.09;5067851;28;20024;-62
2022/06/28 00:37:08;;;;;;;1.40;0.90;;;;;;;20.73;89.21;101209.25;5068647;28;20094;-58
2022/06/28 00:39:34;;;;;;;2.28;1.25;;;;;;;20.68;89.25;101204.25;5071165;28;20472;-59
2022/06/28 00:41:59;;;;;;;1.60;1.00;;;;;;;20.51;90.33;101214.22;5078470;28;20025;-56
2022/06/28 00:44:26;;;;;;;1.63;1.00;;;;;;;20.67;89.47;101217.16;5069736;28;20033;-62
2022/06/28 00:46:52;;;;;;;1.75;1.23;;;;;;;20.65;89.45;101218.78;5063896;28;20037;-62
2022/06/28 00:49:17;;;;;;;2.08;1.10;;;;;;;20.66;89.33;101223.03;5060673;28;20511;-62
2022/06/28 00:51:43;;;;;;;1.85;1.17;;;;;;;20.73;88.86;101220.22;5070199;28;20117;-62
2022/06/28 00:54:08;;;;;;;1.52;1.17;;;;;;;20.74;88.79;101219.03;5060821;28;20045;-61
2022/06/28 00:56:34;;;;;;;1.75;1.20;;;;;;;20.79;87.92;101231.50;5064440;28;20028;-63
2022/06/28 00:59:01;;;;;;;2.50;1.45;;;;;;;20.70;88.64;101221.03;5064984;28;20036;-64
2022/06/28 01:01:29;;;;;;;2.28;1.30;;;;;;;20.57;88.96;101228.25;5062529;28;20028;-63
2022/06/28 01:03:56;;;;;;;2.67;1.40;;;;;;;20.61;89.24;101232.47;5051379;28;20034;-63
2022/06/28 01:06:22;;;;;;;2.22;1.33;;;;;;;20.59;89.18;101234.09;5068633;28;20552;-64
2022/06/28 01:08:48;;;;;;;1.60;1.08;;;;;;;20.64;89.00;101239.88;5058845;28;20032;-63
2022/06/28 01:11:20;;;;;;;1.83;1.08;;;;;;;20.65;88.58;101235.94;5052373;28;20087;-63
2022/06/28 01:13:58;;;;;;;1.40;0.98;;;;;;;20.68;88.58;101223.41;5062338;28;20119;-63
2022/06/28 01:16:26;;;;;;;5.80;1.20;;;;;;;20.69;88.08;101219.50;5056670;28;20116;-63
2022/06/28 01:19:00;;;;;;;3.95;1.50;;;;;;;20.49;89.18;101226.75;5076644;28;20027;-62
2022/06/28 01:21:36;;;;;;;1.52;0.95;;;;;;;20.49;89.14;101226.75;5057940;28;20494;-62
2022/06/28 01:24:03;;;;;;;1.42;1.13;;;;;;;20.45;89.38;101217.81;5056006;28;20037;-63
2022/06/28 01:26:45;;;;;;;2.47;1.42;;;;;;;20.40;89.50;101234.69;5081349;28;20393;-62
2022/06/28 01:29:11;;;;;;;2.97;1.63;;;;;;;20.34;89.64;101217.91;5052047;28;20040;-63
2022/06/28 01:31:45;;;;;;;1.67;1.13;;;;;;;20.39;88.96;101222.19;5056730;28;20033;-63
2022/06/28 01:34:12;;;;;;;2.47;1.30;;;;;;;20.39;89.11;101227.66;5082771;28;20703;-63
2022/06/28 01:36:37;;;;;;;2.00;1.10;;;;;;;20.37;88.81;101217.13;5065703;28;20476;-63
2022/06/28 01:39:04;;;;;;;2.05;1.35;;;;;;;20.19;89.87;101227.47;5056954;28;20547;-63
2022/06/28 01:41:34;;;;;;;2.67;1.40;;;;;;;19.79;91.76;101226.22;5058717;28;20060;-63
2022/06/28 01:44:23;;;;;;;1.75;1.25;;;;;;;19.67;92.77;101240.38;5065456;28;20123;-63
2022/06/28 01:47:05;;;;;;;2.15;1.35;;;;;;;19.62;92.96;101242.78;5061457;28;20024;-62
2022/06/28 01:49:52;;;;;;;2.50;1.40;;;;;;;19.45;94.25;101252.63;5034255;28;20041;-62
2022/06/28 01:52:19;;;;;;;2.03;1.30;;;;;;;19.59;93.70;101257.22;5054548;28;20585;-62
2022/06/28 01:54:45;;;;;;;1.33;1.15;;;;;;;19.60;94.03;101265.03;5057991;28;20405;-62
2022/06/28 01:57:11;;;;;;;2.95;1.48;;;;;;;19.75;92.86;101269.22;5068920;28;20039;-62
2022/06/28 01:59:50;;;;;;;1.92;1.35;;;;;;;19.82;92.52;101273.09;5078746;28;20036;-63
2022/06/28 02:02:29;;;;;;;1.80;1.30;;;;;;;19.88;92.69;101260.53;5067709;28;20041;-63
2022/06/28 02:05:21;;;;;;;2.55;1.45;;;;;;;19.79;92.52;101259.03;5060360;28;20041;-63
2022/06/28 02:07:49;;;;;;;2.53;1.52;;;;;;;19.89;92.33;101264.81;5068442;28;20044;-63
2022/06/28 02:10:17;;;;;;;1.83;1.17;;;;;;;19.91;92.19;101265.19;5062634;28;20032;-63
2022/06/28 02:12:42;;;;;;;2.13;1.05;;;;;;;20.00;91.64;101254.56;5078795;28;20370;-63
2022/06/28 02:15:09;;;;;;;1.65;1.10;;;;;;;19.84;92.55;101260.53;5061720;28;20115;-63
2022/06/28 02:17:36;;;;;;;3.63;1.55;;;;;;;19.99;91.96;101261.22;5071728;28;20485;-63
2022/06/28 02:20:02;;;;;;;1.25;0.98;;;;;;;20.01;91.50;101258.88;5058642;28;20052;-63
2022/06/28 02:22:28;;;;;;;1.17;0.90;;;;;;;20.02;91.29;101253.00;5071453;28;20032;-62
2022/06/28 02:24:53;;;;;;;2.03;1.25;;;;;;;19.95;91.61;101255.78;5058213;28;20036;-63
2022/06/28 02:27:19;;;;;;;2.13;1.38;;;;;;;19.97;91.53;101258.13;5069941;28;20033;-64
2022/06/28 02:29:44;;;;;;;2.38;1.20;;;;;;;20.00;90.96;101251.81;5060726;28;20082;-61
2022/06/28 02:32:11;;;;;;;1.65;1.13;;;;;;;20.00;90.51;101258.09;5059874;28;20032;-63
2022/06/28 02:40:21;;;;;;;3.05;1.90;;;;;;;19.89;90.63;101264.81;5066418;28;20043;-63
2022/06/28 02:42:57;;;;;;;;;;;;;;;19.75;91.19;101261.03;5061355;28;20071;-60
2022/06/28 02:45:27;;;;;;;1.73;1.00;;;;;;;19.80;91.36;101252.38;5067416;28;19920;-61
2022/06/28 02:47:53;;;;;;;2.30;1.38;;;;;;;19.88;91.04;101249.59;5049059;28;20041;-61
2022/06/28 02:50:19;;;;;;;2.42;1.30;;;;;;;19.90;91.22;101250.75;5052865;28;20413;-61
2022/06/28 02:52:47;;;;;;;2.35;0.95;;;;;;;19.94;91.20;101256.19;5054560;28;20033;-62
2022/06/28 02:55:13;;;;;;;2.03;1.30;;;;;;;19.92;91.13;101245.66;5054814;28;20032;-60
2022/06/28 02:57:39;;;;;;;2.38;1.35;;;;;;;19.82;91.75;101237.53;5081371;28;20039;-60
2022/06/28 03:00:17;;;;;;;2.22;1.50;;;;;;;19.88;91.27;101247.63;5068896;28;20032;-61
2022/06/28 03:02:44;;;;;;;2.35;1.35;;;;;;;19.35;94.91;101245.28;5063322;28;20024;-61
2022/06/28 03:05:14;;;;;;;1.90;1.33;;;;;;;19.58;94.23;101255.69;5063554;28;20025;-62
2022/06/28 03:07:41;;;;;;;3.22;1.70;;;;;;;19.53;94.56;101240.47;5060696;28;20561;-58
2022/06/28 03:10:08;;;;;;;3.47;1.67;;;;;;;19.26;95.99;101255.06;5063594;28;20052;-61
2022/06/28 03:12:34;;;;;;;2.95;1.90;;;;;;;19.28;95.64;101250.00;5075941;28;20082;-62
2022/06/28 03:14:59;;;;;;;3.78;1.65;;;;;;;19.05;97.38;101253.22;5079466;28;20124;-62
2022/06/28 03:17:26;;;;;;;3.05;1.20;;;;;;;19.21;96.76;101261.72;5057257;28;20495;-61
2022/06/28 03:19:52;;;;;;;2.38;1.55;;;;;;;19.27;96.71;101271.06;5066281;28;20032;-61
2022/06/28 03:22:17;;;;;;;2.53;1.50;;;;;;;19.34;95.90;101281.97;5056495;28;20036;-62
2022/06/28 03:24:43;;;;;;;2.97;1.55;;;;;;;19.21;96.18;101274.59;5074075;28;20036;-59
2022/06/28 03:27:09;;;;;;;3.40;1.73;;;;;;;19.23;96.57;101286.69;5070569;28;20037;-61
2022/06/28 03:29:35;;;;;;;3.80;2.00;;;;;;;19.30;96.55;101285.88;5086408;28;20035;-61
2022/06/28 03:32:05;;;;;;;2.63;1.50;;;;;;;19.15;97.22;101296.09;5076941;28;20115;-61
2022/06/28 03:34:30;;;;;;;3.13;1.75;;;;;;;18.85;98.42;101301.28;5072548;28;20075;-61
2022/06/28 03:36:56;;;;;;;4.38;1.83;;;;;;;18.87;99.31;101298.94;5067060;28;20477;-62
2022/06/28 03:39:39;;;;;;;3.08;1.80;;;;;;;18.36;100.00;101298.59;5065511;28;20046;-58
2022/06/28 03:42:06;;;;;;;4.43;1.85;;;;;;;18.67;100.00;101308.72;5073500;28;20033;-61
2022/06/28 03:44:33;;;;;;;4.97;2.25;;;;;;;18.78;100.00;101307.53;5072339;28;20032;-59
2022/06/28 03:47:03;;;;;;;3.97;2.00;;;;;;;18.46;100.00;101322.41;5072040;28;20032;-62
2022/06/28 03:49:51;;;;;;;3.45;1.80;;;;;;;18.28;100.00;101327.84;5062065;28;20127;-60
2022/06/28 03:52:33;;;;;;;5.75;1.88;;;;;;;18.35;100.00;101343.44;5088981;28;20037;-59
2022/06/28 03:55:27;;;;;;;2.80;1.63;;;;;;;18.78;100.00;101344.94;5069053;28;20036;-58
2022/06/28 03:57:54;;;;;;;5.20;2.20;;;;;;;19.00;100.00;101349.19;5057977;28;20029;-59
2022/06/28 04:00:20;;;;;;;3.65;1.80;;;;;;;19.07;100.00;101348.38;5060090;28;20520;-59
2022/06/28 04:02:49;;;;;;;4.32;1.90;;;;;;;19.05;100.00;101356.97;5085091;28;20041;-62
2022/06/28 04:05:23;;;;;;;5.30;2.42;;;;;;;19.32;99.88;101355.34;5066149;28;20028;-61
2022/06/28 04:07:48;;;;;;;3.53;2.15;;;;;;;19.50;98.62;101361.53;5068536;28;20488;-61
2022/06/28 04:10:17;;;;;;;3.58;1.85;;;;;;;19.61;97.68;101361.47;5067323;28;20421;-63
2022/06/28 04:12:47;;;;;;;4.20;2.72;;;;;;;19.72;97.10;101356.72;5078182;28;20123;-62
2022/06/28 04:15:21;;;;;;;3.60;1.67;;;;;;;19.78;96.35;101358.63;5064143;28;20038;-61
2022/06/28 04:17:58;;;;;;;3.28;1.75;;;;;;;19.83;95.75;101365.63;5080585;28;20512;-59
2022/06/28 04:20:41;;;;;;;1.73;1.30;;;;;;;19.93;95.95;101373.00;5072820;28;20064;-61
2022/06/28 04:23:09;;;;;;;8.13;1.80;;;;;;;19.89;95.85;101374.19;5088335;28;20047;-59
2022/06/28 04:25:36;;;;;;;4.32;1.75;;;;;;;19.88;95.67;101387.06;5068661;28;20017;-59
2022/06/28 04:28:31;;;;;;;3.95;1.80;;;;;;;19.79;96.12;101379.34;5047406;28;20055;-59
2022/06/28 04:31:05;;;;;;;2.13;1.40;;;;;;;19.79;96.21;101384.81;5054164;28;20087;-60
2022/06/28 04:33:31;;;;;;;4.13;1.58;;;;;;;19.90;95.53;101392.19;5060667;28;20030;-60
2022/06/28 04:35:57;;;;;;;2.58;1.35;;;;;;;19.85;95.69;101392.56;5060207;28;20043;-62
2022/06/28 04:38:24;;;;;;;3.33;1.20;;;;;;;19.77;96.04;101398.09;5059478;28;20111;-62
2022/06/28 04:40:58;;;;;;;2.55;1.40;;;;;;;19.81;96.39;101403.53;5077105;28;20040;-59
2022/06/28 04:43:56;;;;;;;1.67;1.30;;;;;;;19.76;96.19;101403.97;5026317;28;20059;-59
2022/06/28 04:46:31;;;;;;;2.55;1.30;;;;;;;19.89;95.94;101407.00;5079948;28;20029;-58
2022/06/28 04:49:01;;;;;;;2.00;1.38;;;;;;;19.88;96.03;101410.94;5063394;28;20090;-63
2022/06/28 04:51:49;;;;;;;2.08;1.48;;;;;;;19.98;95.67;101408.13;5074387;28;20533;-59
2022/06/28 04:54:35;;;;;;;3.25;1.27;;;;;;;19.91;95.90;101405.44;5063217;28;20040;-62
2022/06/28 04:57:23;;;;;;;2.65;1.42;;;;;;;20.00;95.86;101410.44;5061698;28;20116;-62
2022/06/28 04:59:56;;;;;;;2.95;1.42;;;;;;;20.09;95.50;101408.06;5076316;28;20036;-62
2022/06/28 05:02:47;;;;;;;;;;;;;;;20.09;95.38;101408.81;5062796;28;20048;-63
2022/06/28 05:05:35;;;;;;;3.20;1.65;;;;;;;20.20;94.88;101398.63;5066566;28;19961;-65
2022/06/28 05:08:02;;;;;;;3.42;2.08;;;;;;;19.96;94.82;101399.53;5061078;28;20025;-61
2022/06/28 05:10:37;;;;;;;3.30;1.70;;;;;;;20.11;95.27;101400.25;5071992;28;20063;-61
2022/06/28 05:13:25;;;;;;;3.28;2.17;;;;;;;20.18;94.92;101389.25;5056980;28;20416;-60
2022/06/28 05:15:51;;;;;;;3.13;1.50;;;;;;;20.24;94.37;101399.41;5060926;28;20028;-62
2022/06/28 05:18:16;;;;;;;4.30;1.80;;;;;;;20.27;94.21;101400.53;5061093;28;20111;-63
2022/06/28 05:20:42;;;;;;;4.60;2.17;;;;;;;20.33;93.91;101401.66;5059898;28;20036;-62
2022/06/28 05:23:08;;;;;;;6.20;2.08;;;;;;;20.43;93.92;101398.06;5061212;28;20115;-64
2022/06/28 05:25:52;;;;;;;2.50;1.63;;;;;;;20.57;93.11;101398.75;5051503;28;20471;-62
2022/06/28 05:28:17;;;;;;;4.80;2.10;;;;;;;20.66;92.43;101392.78;5067455;28;20359;-62
2022/06/28 05:30:43;;;;;;;2.50;1.60;;;;;;;20.78;93.14;101394.25;5068778;28;20079;-59
2022/06/28 05:33:08;;;;;;;2.13;1.33;;;;;;;21.03;92.10;101395.59;5060753;28;20388;-62
2022/06/28 05:35:34;;;;;;;3.47;1.98;;;;;;;21.63;89.84;101392.13;5056705;28;20056;-64
2022/06/28 05:38:00;;;;;;;3.05;1.80;;;;;;;21.95;87.12;101394.47;5054857;28;20021;-64
2022/06/28 05:40:26;;;;;;;2.20;1.42;;;;;;;22.02;85.49;101400.63;5057726;28;20037;-63
2022/06/28 05:42:51;;;;;;;2.85;1.63;;;;;;;21.93;84.33;101392.13;5050462;28;20029;-65
2022/06/28 05:45:17;;;;;;;3.53;2.08;;;;;;;21.75;85.41;101393.53;5069258;28;20056;-62
2022/06/28 05:47:43;;;;;;;3.83;1.85;;;;;;;21.72;85.19;101388.91;5061784;28;20092;-62
2022/06/28 05:50:09;;;;;;;5.68;2.78;;;;;;;21.70;84.86;101383.81;5062608;28;20524;-63
2022/06/28 05:52:34;;;;;;;4.38;2.83;;;;;;;21.75;85.63;101390.81;5065547;28;20112;-65
2022/06/28 05:55:00;;;;;;;4.70;2.70;;;;;;;21.93;84.99;101392.13;5038980;28;20051;-63
2022/06/28 05:57:26;;;;;;;8.75;3.47;;;;;;;21.91;85.15;101389.03;5056694;28;20068;-63
2022/06/28 05:59:51;;;;;;;4.05;2.47;;;;;;;21.94;84.66;101390.94;5057728;28;20034;-63
2022/06/28 06:02:17;;;;;;;6.57;3.22;;;;;;;21.99;84.42;101386.97;5062709;28;20115;-64
2022/06/28 06:04:43;;;;;;;5.40;2.75;;;;;;;22.12;84.04;101382.47;5064805;28;20108;-63
2022/06/28 06:07:09;;;;;;;7.60;3.63;;;;;;;21.95;83.68;101397.22;5054508;28;20033;-63
2022/06/28 06:09:36;;;;;;;5.07;2.67;;;;;;;21.95;83.74;101389.00;5059035;28;20036;-63
2022/06/28 06:12:04;;;;;;;6.05;2.63;;;;;;;22.07;83.49;101385.66;5071780;28;20036;-61
2022/06/28 06:14:29;;;;;;;6.00;3.25;;;;;;;22.04;82.69;101389.25;5058298;28;20032;-61
2022/06/28 06:16:55;;;;;;;3.78;2.50;;;;;;;22.26;82.92;101383.00;5061100;28;20374;-60
2022/06/28 06:19:21;;;;;;;5.32;2.72;;;;;;;22.36;81.64;101384.81;5058472;28;20032;-60
2022/06/28 06:21:47;;;;;;;5.80;3.05;;;;;;;22.00;81.51;101389.31;5057426;28;20103;-60
2022/06/28 06:24:12;;;;;;;6.82;3.88;;;;;;;21.92;81.60;101395.28;5063493;28;20081;-61
2022/06/28 06:26:56;;;;;;;9.10;3.53;;;;;;;21.79;82.36;101395.06;5061102;28;20562;-61
2022/06/28 06:29:22;;;;;;;7.95;4.50;;;;;;;22.01;83.35;101398.31;5063616;28;20032;-61
2022/06/28 06:31:48;;;;;;;8.82;4.43;;;;;;;22.33;82.34;101393.88;5078075;28;20484;-60
2022/06/28 06:34:51;;;;;;;8.05;3.83;;;;;;;22.78;81.19;101399.06;5075190;28;20040;-62
2022/06/28 06:37:18;;;;;;;5.63;3.70;;;;;;;23.17;78.46;101402.63;5079006;28;20120;-61
2022/06/28 06:39:43;;;;;;;5.90;3.05;;;;;;;23.54;75.54;101409.75;5059970;28;20124;-63
2022/06/28 06:42:09;;;;;;;6.57;3.47;;;;;;;23.83;75.16;101416.22;5081970;28;20056;-62
2022/06/28 06:44:35;;;;;;;5.18;3.08;;;;;;;24.06;72.66;101418.09;5076248;28;20405;-61
2022/06/28 06:47:04;;;;;;;5.78;2.83;;;;;;;24.28;71.73;101427.41;5064075;28;20135;-61
2022/06/28 06:49:29;;;;;;;5.53;2.95;;;;;;;24.54;71.28;101420.88;5068055;28;20090;-62
2022/06/28 06:51:55;;;;;;;4.65;2.92;;;;;;;24.65;68.63;101421.38;5053819;28;20485;-62
2022/06/28 06:54:21;;;;;;;5.38;3.35;;;;;;;24.55;69.50;101424.38;5049067;28;20033;-63
2022/06/28 06:56:46;;;;;;;4.95;2.83;;;;;;;24.34;69.04;101422.94;5060352;28;20028;-62
2022/06/28 06:59:13;;;;;;;4.30;2.83;;;;;;;24.14;69.93;101428.50;5048573;28;20029;-63
2022/06/28 07:01:40;;;;;;;4.35;2.60;;;;;;;23.77;71.35;101428.91;5068965;28;20040;-61
2022/06/28 07:04:08;;;;;;;5.38;2.67;;;;;;;23.53;71.76;101434.94;5071992;28;20116;-61
2022/06/28 07:06:34;;;;;;;3.10;1.90;;;;;;;23.35;72.53;101426.25;5068413;28;20032;-61
2022/06/28 07:09:00;;;;;;;3.08;1.95;;;;;;;23.50;72.95;101439.31;5069435;28;20119;-63
2022/06/28 07:11:26;;;;;;;3.15;2.15;;;;;;;23.83;72.19;101438.22;5068985;28;20124;-63
2022/06/28 07:13:52;;;;;;;4.63;2.30;;;;;;;24.05;71.50;101435.81;5055305;28;20120;-63
2022/06/28 07:16:17;;;;;;;3.30;2.47;;;;;;;24.11;69.55;101445.13;5062209;28;20033;-60
2022/06/28 07:18:43;;;;;;;2.60;2.00;;;;;;;24.40;69.22;101448.75;5061069;28;20060;-62
2022/06/28 07:21:10;;;;;;;2.40;1.67;;;;;;;24.64;67.49;101454.88;5088848;28;20344;-62
2022/06/28 07:23:36;;;;;;;2.03;1.50;;;;;;;24.96;66.24;101452.91;5066596;28;20037;-61
2022/06/28 07:26:02;;;;;;;2.60;1.30;;;;;;;24.80;67.32;101458.44;5068845;28;20708;-62
2022/06/28 07:28:27;;;;;;;1.45;1.17;;;;;;;24.87;66.52;101461.00;5074120;28;20082;-62
2022/06/28 07:30:53;;;;;;;2.00;1.52;;;;;;;24.81;64.91;101465.50;5071986;28;20020;-62
2022/06/28 07:33:19;;;;;;;1.83;1.38;;;;;;;24.70;64.97;101467.69;5069640;28;20089;-61
2022/06/28 07:35:46;;;;;;;1.50;1.30;;;;;;;24.48;65.73;101454.88;5068228;28;20037;-59
2022/06/28 07:38:13;;;;;;;1.85;1.50;;;;;;;24.28;66.55;101459.66;5071746;28;20024;-61
2022/06/28 07:41:14;;;;;;;1.67;1.30;;;;;;;24.08;66.78;101476.25;5011802;28;20514;-61
2022/06/28 07:43:42;;;;;;;1.25;1.00;;;;;;;23.95;67.10;101467.06;5064939;28;20444;-63
2022/06/28 07:46:12;;;;;;;2.72;1.48;;;;;;;23.75;67.61;101474.59;5055293;28;20406;-61
2022/06/28 07:48:38;;;;;;;1.02;0.80;;;;;;;23.83;66.77;101467.72;5070298;28;20063;-62
2022/06/28 07:53:53;;;;;;;1.17;0.52;;;;;;;24.16;66.02;101463.88;5072112;28;20037;-61
2022/06/28 07:56:41;;;;;;;0.57;0.50;;;;;;;24.40;66.59;101470.03;5071099;28;20047;-63
2022/06/28 07:59:08;;;;;;;1.33;0.80;;;;;;;24.47;64.98;101478.88;5065678;28;20040;-63
2022/06/28 08:01:34;;;;;;;0.63;0.45;;;;;;;24.44;63.61;101478.97;5065014;28;20056;-61
2022/06/28 08:04:07;;;;;;;;;;;;;;;24.63;63.19;101489.94;5085854;28;20517;-63
2022/06/28 08:06:34;;;;;;;1.15;0.60;;;;;;;24.89;61.01;101490.91;5061453;28;20009;-63
2022/06/28 08:08:59;;;;;;;0.47;0.45;;;;;;;25.27;58.63;101488.31;5067013;28;20127;-62
2022/06/28 08:11:26;;;;;;;0.85;0.60;;;;;;;25.51;58.69;101486.91;5070460;28;20756;-62
2022/06/28 08:13:56;;;;;;;0.65;0.55;;;;;;;25.74;57.46;101487.44;5083976;28;20032;-63
2022/06/28 08:16:23;;;;;;;1.23;0.50;;;;;;;25.81;56.51;101486.44;5059729;28;20041;-62
2022/06/28 08:18:49;;;;;;;1.15;0.85;;;;;;;25.94;54.52;101488.00;5051539;28;20350;-62
2022/06/28 08:21:15;;;;;;;1.75;0.80;;;;;;;26.15;54.91;101486.63;5056791;28;20086;-62
2022/06/28 08:23:41;;;;;;;1.17;0.82;;;;;;;26.22;55.28;101483.66;5087289;28;20037;-62
2022/06/28 08:26:07;;;;;;;1.98;0.70;;;;;;;26.25;54.98;101480.00;5074414;28;20429;-63
2022/06/28 08:28:33;;;;;;;1.10;0.70;;;;;;;26.35;56.58;101489.94;5087976;28;20094;-63
2022/06/28 08:30:59;;;;;;;0.70;0.68;;;;;;;26.51;55.12;101491.81;5085647;28;20501;-62
2022/06/28 08:33:24;;;;;;;4.85;0.60;;;;;;;26.66;53.92;101485.38;5054273;28;20067;-63
2022/06/28 08:35:50;;;;;;;0.50;0.35;;;;;;;26.69;52.76;101501.06;5059102;28;20037;-62
2022/06/28 08:38:16;;;;;;;1.27;0.68;;;;;;;26.96;51.84;101499.84;5072250;28;20401;-62
2022/06/28 08:40:42;;;;;;;1.92;0.80;;;;;;;27.05;51.46;101497.16;5072542;28;20589;-63
2022/06/28 08:43:08;;;;;;;1.23;0.85;;;;;;;27.13;50.56;101501.25;5063744;28;20046;-61
2022/06/28 08:45:35;;;;;;;1.08;0.82;;;;;;;27.26;50.42;101493.66;5065090;28;20028;-62
2022/06/28 08:48:12;;;;;;;0.70;0.50;;;;;;;27.27;49.79;101498.78;5071852;28;20040;-62
2022/06/28 08:50:39;;;;;;;0.65;0.50;;;;;;;27.42;49.51;101499.84;5072052;28;20499;-63
2022/06/28 08:53:08;;;;;;;0.95;0.43;;;;;;;27.40;49.43;101493.97;5061731;28;20033;-61
2022/06/28 08:55:35;;;;;;;0.30;0.30;;;;;;;27.56;48.43;101495.78;5068616;28;20040;-63
2022/06/28 08:58:05;;;;;;;0.63;0.40;;;;;;;27.73;46.82;101493.56;5066339;28;20036;-63
2022/06/28 09:00:31;;;;;;;0.50;0.40;;;;;;;27.65;47.45;101499.38;5086111;28;20585;-63
2022/06/28 09:02:57;;;;;;;0.93;0.25;;;;;;;27.63;46.45;101510.13;5057226;28;20052;-63
2022/06/28 09:05:24;;;;;;;0.32;0.30;;;;;;;26.72;48.53;101489.19;5062350;28;20114;-63
2022/06/28 09:07:51;;;;;;;1.48;0.40;;;;;;;27.28;46.65;101507.81;5055805;28;20466;-63
2022/06/28 09:10:20;;;;;;;0.50;0.25;;;;;;;27.51;46.12;101508.19;5057626;28;20039;-63
2022/06/28 09:12:55;;;;;;;1.23;0.22;;;;;;;27.72;44.80;101495.56;5056765;28;20042;-61
2022/06/28 09:15:22;;;;;;;0.55;0.38;;;;;;;27.99;45.42;101504.06;5051353;28;20477;-63
2022/06/28 09:17:52;;;;;;;0.20;0.20;;;;;;;28.16;44.86;101499.88;5049645;28;20238;-62
2022/06/28 09:20:18;;;;;;;1.15;0.20;;;;;;;28.29;43.60;101497.75;5061451;28;20401;-63
2022/06/28 09:22:44;;;;;;;0.15;0.15;;;;;;;28.47;42.78;101503.34;5057531;28;20040;-61
2022/06/28 09:25:31;;;;;;;1.15;0.30;;;;;;;28.54;43.35;101507.88;5066545;28;20111;-62
2022/06/28 09:27:59;;;;;;;0.20;0.20;;;;;;;28.48;41.39;101499.38;5052735;28;20102;-63
2022/06/28 09:30:27;;;;;;;0.20;0.10;;;;;;;28.56;42.03;101501.88;5057438;28;20477;-63
2022/06/28 09:32:53;;;;;;;0.10;0.10;;;;;;;28.75;42.25;101504.25;5055757;28;20432;-63
2022/06/28 09:35:19;;;;;;;0.45;0.20;;;;;;;28.82;42.25;101503.19;5066499;28;20066;-62
2022/06/28 09:37:54;;;;;;;0.22;0.20;;;;;;;28.97;41.21;101493.03;5064030;28;20033;-62
2022/06/28 09:40:23;;;;;;;0.63;0.15;;;;;;;29.09;39.28;101494.91;5073672;28;20040;-63
2022/06/28 09:43:18;;;;;;;1.30;0.15;;;;;;;29.06;39.03;101496.59;5062095;28;20036;-63
2022/06/28 09:45:46;;;;;;;0.32;0.17;;;;;;;29.30;40.08;101505.88;5048795;28;20131;-62
2022/06/28 09:48:20;;;;;;;0.17;0.10;;;;;;;29.44;39.95;101504.50;5059002;28;20485;-63
2022/06/28 09:50:47;;;;;;;0.20;0.10;;;;;;;29.37;41.05;101499.22;5051022;28;20044;-63
2022/06/28 09:53:15;;;;;;;1.08;0.10;;;;;;;29.44;40.01;101503.72;5061426;28;20066;-62
2022/06/28 09:55:42;;;;;;;0.35;0.35;;;;;;;29.45;40.03;101508.81;5066896;28;20032;-63
2022/06/28 09:58:09;;;;;;;0.40;0.10;;;;;;;29.57;39.29;101507.88;5070229;28;20028;-62
2022/06/28 10:00:39;;;;;;;0.10;0.10;;;;;;;29.74;38.12;101506.31;5054353;28;20067;-62
2022/06/28 10:03:05;;;;;;;0.10;0.10;;;;;;;29.88;39.07;101500.13;5066827;28;20067;-62
2022/06/28 10:05:32;;;;;;;0.15;0.10;;;;;;;29.99;39.35;101514.28;5053041;28;20036;-62
2022/06/28 10:07:58;;;;;;;0.10;0.10;;;;;;;29.94;39.29;101498.25;5064812;28;20028;-63
2022/06/28 10:10:24;;;;;;;1.10;0.45;;;;;;;29.44;39.27;101509.28;5068602;28;20028;-63
2022/06/28 10:15:44;;;;;;;0.10;0.10;;;;;;;29.26;40.42;101501.72;5061205;28;20037;-61
2022/06/28 10:18:19;;;;;;;0.30;0.20;;;;;;;29.58;39.96;101491.97;5075838;28;20028;-61
2022/06/28 10:20:44;;;;;;;0.00;0.00;;;;;;;29.89;40.14;101490.53;5069223;28;20028;-63
2022/06/28 10:23:27;;;;;;;0.40;0.13;;;;;;;30.16;38.87;101487.66;5063164;28;20497;-62
2022/06/28 10:26:11;;;;;;;0.00;0.00;;;;;;;30.42;38.26;101492.84;5064420;28;20416;-62
2022/06/28 10:28:39;;;;;;;1.33;0.20;;;;;;;30.51;38.76;101484.47;5056927;28;20040;-63
2022/06/28 10:31:43;;;;;;;0.08;0.08;;;;;;;29.83;38.20;101489.63;5064810;28;20392;-63
2022/06/28 10:34:17;;;;;;;0.52;0.10;;;;;;;29.17;40.24;101479.50;5019992;28;20401;-63
2022/06/28 10:36:53;;;;;;;0.43;0.20;;;;;;;29.74;39.14;101494.44;5055915;28;20028;-62
2022/06/28 10:39:28;;;;;;;0.60;0.10;;;;;;;30.11;39.65;101490.31;5069593;28;20500;-63
2022/06/28 10:42:06;;;;;;;0.68;0.25;;;;;;;30.55;38.15;101487.81;5069170;28;20374;-62
2022/06/28 10:44:31;;;;;;;0.10;0.10;;;;;;;29.69;38.72;101497.81;5066006;28;20098;-62
2022/06/28 10:47:06;;;;;;;0.10;0.10;;;;;;;30.20;38.55;101488.25;5064667;28;20567;-63
2022/06/28 10:49:50;;;;;;;0.10;0.10;;;;;;;30.25;38.40;101484.09;5060147;28;20068;-63
2022/06/28 10:52:17;;;;;;;0.30;0.10;;;;;;;30.40;38.65;101484.19;5105015;28;20063;-63
2022/06/28 10:54:52;;;;;;;2.63;0.30;;;;;;;29.47;39.67;101484.13;5096672;28;20032;-63
2022/06/28 10:57:37;;;;;;;0.90;0.43;;;;;;;30.11;38.20;101482.75;5070397;28;20140;-64
2022/06/28 11:00:11;;;;;;;1.65;0.10;;;;;;;30.58;37.80;101484.09;5055727;28;20032;-64
2022/06/28 11:02:49;;;;;;;0.22;0.20;;;;;;;30.88;37.30;101483.00;5056009;28;20446;-63
2022/06/28 11:05:15;;;;;;;0.30;0.10;;;;;;;31.04;37.10;101491.69;5073248;28;20040;-62
2022/06/28 11:07:55;;;;;;;0.20;0.10;;;;;;;31.27;36.65;101484.53;5071925;28;20060;-63
2022/06/28 11:10:21;;;;;;;0.20;0.13;;;;;;;31.35;37.38;101491.28;5059457;28;20032;-62
2022/06/28 11:12:46;;;;;;;0.35;0.20;;;;;;;31.28;35.82;101486.06;5059840;28;20039;-64
2022/06/28 11:15:36;;;;;;;0.10;0.10;;;;;;;29.79;37.48;101486.22;5055035;28;20036;-63
2022/06/28 11:18:13;;;;;;;0.28;0.10;;;;;;;30.75;36.79;101479.66;5059415;28;20033;-63
2022/06/28 11:20:38;;;;;;;0.20;0.15;;;;;;;31.09;36.40;101479.91;5051634;28;20090;-64
2022/06/28 11:23:05;;;;;;;0.10;0.10;;;;;;;31.54;35.59;101481.53;5047304;28;20668;-63
2022/06/28 11:28:16;;;;;;;0.30;0.15;;;;;;;31.07;36.58;101465.69;5058037;28;20124;-64
2022/06/28 11:30:43;;;;;;;0.10;0.10;;;;;;;29.53;37.94;101468.38;5059754;28;20031;-63
2022/06/28 11:33:10;;;;;;;0.13;0.10;;;;;;;30.60;36.64;101471.25;5081366;28;20094;-62
2022/06/28 11:35:41;;;;;;;0.00;0.00;;;;;;;31.27;36.87;101473.41;5059154;28;20350;-63
2022/06/28 11:38:10;;;;;;;0.35;0.20;;;;;;;31.29;36.06;101476.47;5060579;28;20049;-63
2022/06/28 11:40:40;;;;;;;0.63;0.10;;;;;;;31.49;36.30;101473.84;5060599;28;20024;-64
2022/06/28 11:43:10;;;;;;;0.73;0.53;;;;;;;31.56;36.20;101473.47;5050458;28;20135;-63
2022/06/28 11:45:38;;;;;;;0.70;0.10;;;;;;;31.60;36.27;101462.91;5060978;28;20036;-64
2022/06/28 11:48:16;;;;;;;0.20;0.05;;;;;;;31.63;35.91;101473.06;5058130;28;20033;-62
2022/06/28 11:50:47;;;;;;;0.20;0.10;;;;;;;32.01;34.99;101472.22;5060543;28;20067;-62
2022/06/28 11:53:14;;;;;;;0.20;0.20;;;;;;;32.10;36.13;101471.31;5063894;28;20024;-63
2022/06/28 11:55:44;;;;;;;0.20;0.20;;;;;;;32.18;34.54;101461.31;5055285;28;20025;-64